createdAt,value
2018-07-10T00:03:45.729Z,4.77
2018-07-10T00:08:14.695Z,5.37
2018-07-10T00:12:19.166Z,6.40
2018-07-10T00:16:24.081Z,5.53
2018-07-10T00:20:28.518Z,5.53
2018-07-10T00:24:32.882Z,5.90
2018-07-10T00:28:37.350Z,6.87
2018-07-10T00:32:41.818Z,5.83
2018-07-10T00:36:46.281Z,5.97
2018-07-10T00:40:50.755Z,6.00
2018-07-10T00:44:55.227Z,6.43
2018-07-10T00:49:00.030Z,5.70
2018-07-10T00:53:04.472Z,6.07
2018-07-10T00:57:08.946Z,5.97
2018-07-10T01:01:13.790Z,6.80
2018-07-10T01:05:18.242Z,6.10
2018-07-10T01:09:22.937Z,6.10
2018-07-10T01:13:27.461Z,6.70
2018-07-10T01:17:31.928Z,6.70
2018-07-10T01:21:36.497Z,6.13
2018-07-10T01:25:40.887Z,6.37
2018-07-10T01:29:49.421Z,5.30
2018-07-10T01:33:53.941Z,7.23
2018-07-10T01:37:58.550Z,6.13
2018-07-10T01:42:02.982Z,5.80
2018-07-10T01:46:07.515Z,6.50
2018-07-10T01:50:11.891Z,6.03
2018-07-10T01:54:16.595Z,5.00
2018-07-10T01:58:21.837Z,6.37
2018-07-10T02:02:26.284Z,6.40
2018-07-10T02:06:31.116Z,5.50
2018-07-10T02:10:35.585Z,7.20
2018-07-10T02:14:39.974Z,6.53
2018-07-10T02:18:44.785Z,5.73
2018-07-10T02:22:50.104Z,6.57
2018-07-10T02:26:55.099Z,6.47
2018-07-10T02:31:00.136Z,7.20
2018-07-10T02:35:05.400Z,7.20
2018-07-10T02:39:10.003Z,7.10
2018-07-10T02:43:14.966Z,6.50
2018-07-10T02:47:19.568Z,7.23
2018-07-10T02:51:24.276Z,7.27
2018-07-10T02:55:29.371Z,6.57
2018-07-10T02:59:37.946Z,6.67
2018-07-10T03:03:44.126Z,7.03
2018-07-10T03:07:48.794Z,5.80
2018-07-10T03:11:53.472Z,7.90
2018-07-10T03:15:58.020Z,6.30
2018-07-10T03:20:04.016Z,7.13
2018-07-10T03:24:08.950Z,5.83
2018-07-10T03:28:13.718Z,6.00
2018-07-10T03:32:18.789Z,6.07
2018-07-10T03:36:23.477Z,8.10
2018-07-10T03:40:29.465Z,6.57
2018-07-10T03:44:34.007Z,7.27
2018-07-10T03:48:39.209Z,6.93
2018-07-10T03:52:45.266Z,6.53
2018-07-10T03:56:49.768Z,6.13
2018-07-10T04:00:54.274Z,6.40
2018-07-10T04:04:58.847Z,6.53
2018-07-10T04:09:05.056Z,6.30
2018-07-10T04:13:12.733Z,5.60
2018-07-10T04:17:29.634Z,6.77
2018-07-10T04:21:34.642Z,6.50
2018-07-10T04:25:39.249Z,7.00
2018-07-10T04:29:51.343Z,6.47
2018-07-10T04:33:55.986Z,6.30
2018-07-10T04:38:00.652Z,6.53
2018-07-10T04:42:12.685Z,6.20
2018-07-10T04:46:17.161Z,5.73
2018-07-10T04:50:27.872Z,6.05
2018-07-10T04:54:46.612Z,6.07
2018-07-10T04:58:55.666Z,7.47
2018-07-10T05:03:00.960Z,5.57
2018-07-10T05:07:08.400Z,6.30
2018-07-10T05:11:12.895Z,5.13
2018-07-10T05:15:17.466Z,5.10
2018-07-10T05:19:22.066Z,6.23
2018-07-10T05:23:31.290Z,6.50
2018-07-10T05:27:36.253Z,6.17
2018-07-10T05:31:41.006Z,6.40
2018-07-10T05:35:46.157Z,5.73
2018-07-10T05:39:50.787Z,5.77
2018-07-10T05:43:55.434Z,5.83
2018-07-10T05:48:02.330Z,6.57
2018-07-10T05:52:06.852Z,6.30
2018-07-10T05:56:12.306Z,6.03
2018-07-10T06:00:16.851Z,6.00
2018-07-10T06:04:21.288Z,6.43
2018-07-10T06:08:25.905Z,7.20
2018-07-10T06:12:30.491Z,6.77
2018-07-10T06:16:36.104Z,5.90
2018-07-10T06:20:42.586Z,6.70
2018-07-10T06:24:47.152Z,5.80
2018-07-10T06:28:58.330Z,6.13
2018-07-10T06:33:05.980Z,6.40
2018-07-10T06:37:11.616Z,6.63
2018-07-10T06:41:16.339Z,5.83
2018-07-10T06:45:20.906Z,6.67
2018-07-10T06:49:43.899Z,5.80
2018-07-10T06:53:50.293Z,5.47
2018-07-10T06:57:57.994Z,6.00
2018-07-10T07:02:02.510Z,6.83
2018-07-10T07:06:06.959Z,5.40
2018-07-10T07:10:13.695Z,5.93
2018-07-10T07:14:18.300Z,6.67
2018-07-10T07:18:23.027Z,5.50
2018-07-10T07:22:27.785Z,4.97
2018-07-10T07:26:32.306Z,6.40
2018-07-10T07:30:36.863Z,5.27
2018-07-10T07:34:41.446Z,5.73
2018-07-10T07:38:46.035Z,5.53
2018-07-10T07:42:50.595Z,5.60
2018-07-10T07:46:55.192Z,5.50
2018-07-10T07:51:00.418Z,6.60
2018-07-10T07:55:05.260Z,5.23
2018-07-10T07:59:09.901Z,6.10
2018-07-10T08:03:14.572Z,5.90
2018-07-10T08:07:20.746Z,6.33
2018-07-10T08:11:25.278Z,5.47
2018-07-10T08:15:29.846Z,5.17
2018-07-10T08:19:34.383Z,4.43
2018-07-10T08:23:39.026Z,4.50
2018-07-10T08:27:43.942Z,4.70
2018-07-10T08:31:48.721Z,4.70
2018-07-10T08:35:53.306Z,4.70
2018-07-10T08:39:57.826Z,4.50
2018-07-10T08:44:02.369Z,4.90
2018-07-10T08:48:07.113Z,4.73
2018-07-10T08:52:12.985Z,4.57
2018-07-10T08:56:17.600Z,4.60
2018-07-10T09:00:22.184Z,4.57
2018-07-10T09:04:26.928Z,3.63
2018-07-10T09:08:31.402Z,4.37
2018-07-10T09:12:36.009Z,4.77
2018-07-10T09:16:40.460Z,4.60
2018-07-10T09:20:49.204Z,4.20
2018-07-10T09:24:57.351Z,4.20
2018-07-10T09:29:01.946Z,5.73
2018-07-10T09:33:06.851Z,4.20
2018-07-10T09:38:13.964Z,5.00
2018-07-10T09:42:18.478Z,3.90
2018-07-10T09:46:23.055Z,5.10
2018-07-10T09:50:27.709Z,3.93
2018-07-10T09:54:32.550Z,3.80
2018-07-10T09:58:37.748Z,4.43
2018-07-10T10:02:42.345Z,4.20
2018-07-10T10:06:46.849Z,3.93
2018-07-10T10:10:51.489Z,4.50
2018-07-10T10:14:56.197Z,3.53
2018-07-10T10:19:00.753Z,4.37
2018-07-10T10:23:05.690Z,3.93
2018-07-10T10:27:11.216Z,4.87
2018-07-10T10:31:15.807Z,4.33
2018-07-10T10:35:20.426Z,4.50
2018-07-10T10:39:24.983Z,3.93
2018-07-10T10:43:29.564Z,3.53
2018-07-10T10:47:34.828Z,4.30
2018-07-10T10:51:39.411Z,3.80
2018-07-10T10:55:44.007Z,3.80
2018-07-10T10:59:51.464Z,3.90
2018-07-10T11:03:56.106Z,3.70
2018-07-10T11:08:01.922Z,4.10
2018-07-10T11:12:06.605Z,3.90
2018-07-10T11:16:11.172Z,4.23
2018-07-10T11:20:24.508Z,4.67
2018-07-10T11:26:39.953Z,4.10
2018-07-10T11:30:44.464Z,3.53
2018-07-10T11:34:48.889Z,4.27
2018-07-10T11:38:53.866Z,3.90
2018-07-10T11:42:58.501Z,4.03
2018-07-10T11:47:02.920Z,3.40
2018-07-10T11:51:07.379Z,3.70
2018-07-10T11:55:11.934Z,5.50
2018-07-10T11:59:16.480Z,4.43
2018-07-10T12:03:21.376Z,4.00
2018-07-10T12:07:25.823Z,4.50
2018-07-10T12:11:32.234Z,4.63
2018-07-10T12:15:37.369Z,4.33
2018-07-10T12:19:42.614Z,4.23
2018-07-10T12:23:47.219Z,4.07
2018-07-10T12:27:52.012Z,3.50
2018-07-10T12:31:56.567Z,3.80
2018-07-10T12:36:01.150Z,4.00
2018-07-10T12:40:05.654Z,3.27
2018-07-10T12:44:10.227Z,3.53
2018-07-10T12:48:14.664Z,4.40
2018-07-10T12:52:19.291Z,3.43
2018-07-10T12:56:23.810Z,3.83
2018-07-10T13:00:29.370Z,3.73
2018-07-10T13:04:34.628Z,3.60
2018-07-10T13:08:39.066Z,3.60
2018-07-10T13:12:43.682Z,3.63
2018-07-10T13:16:48.240Z,3.40
2018-07-10T13:20:53.028Z,3.80
2018-07-10T13:24:57.580Z,3.70
2018-07-10T13:29:02.149Z,4.30
2018-07-10T13:33:06.691Z,3.40
2018-07-10T13:37:11.332Z,4.40
2018-07-10T13:41:15.922Z,4.63
2018-07-10T13:45:21.668Z,3.57
2018-07-10T13:49:26.216Z,3.57
2018-07-10T13:53:30.697Z,3.93
2018-07-10T13:57:35.509Z,4.17
2018-07-10T14:01:40.913Z,3.47
2018-07-10T14:05:45.471Z,4.83
2018-07-10T14:09:50.061Z,3.77
2018-07-10T14:13:54.636Z,3.70
2018-07-10T14:17:59.668Z,4.40
2018-07-10T14:22:04.623Z,3.60
2018-07-10T14:26:09.143Z,4.50
2018-07-10T14:30:13.732Z,3.83
2018-07-10T14:34:18.262Z,4.27
2018-07-10T14:38:27.090Z,4.30
2018-07-10T14:42:31.956Z,4.53
2018-07-10T14:46:36.589Z,4.65
2018-07-10T14:50:41.254Z,3.93
2018-07-10T14:54:45.938Z,3.43
2018-07-10T14:58:50.593Z,4.30
2018-07-10T15:02:55.443Z,5.00
2018-07-10T15:06:59.834Z,4.83
2018-07-10T15:11:04.553Z,4.57
2018-07-10T15:15:09.214Z,4.60
2018-07-10T15:19:15.477Z,3.97
2018-07-10T15:23:19.998Z,4.10
2018-07-10T15:27:24.628Z,4.57
2018-07-10T15:31:29.595Z,4.40
2018-07-10T15:35:34.040Z,4.30
2018-07-10T15:39:38.720Z,4.10
2018-07-10T15:43:43.185Z,4.10
2018-07-10T15:47:48.038Z,3.90
2018-07-10T15:51:53.122Z,4.23
2018-07-10T15:55:57.601Z,4.30
2018-07-10T16:00:02.308Z,4.10
2018-07-10T16:04:07.107Z,5.10
2018-07-10T16:08:15.938Z,4.23
2018-07-10T16:12:22.698Z,4.70
2018-07-10T16:16:27.424Z,4.53
2018-07-10T16:20:34.854Z,4.50
2018-07-10T16:24:44.778Z,3.57
2018-07-10T16:28:49.511Z,3.93
2018-07-10T16:32:54.150Z,5.63
2018-07-10T16:36:59.099Z,4.30
2018-07-10T16:41:08.563Z,5.33
2018-07-10T16:45:16.784Z,5.13
2018-07-10T16:49:29.221Z,5.77
2018-07-10T16:53:35.457Z,6.10
2018-07-10T16:57:40.214Z,7.93
2018-07-10T17:01:44.845Z,7.17
2018-07-10T17:05:49.394Z,7.40
2018-07-10T17:09:55.074Z,7.13
2018-07-10T17:13:59.555Z,6.87
2018-07-10T17:18:04.558Z,6.10
2018-07-10T17:22:09.056Z,6.73
2018-07-10T17:26:13.527Z,7.20
2018-07-10T17:30:18.480Z,7.07
2018-07-10T17:34:23.393Z,7.17
2018-07-10T17:38:29.743Z,7.43
2018-07-10T17:42:35.478Z,7.60
2018-07-10T17:46:40.432Z,7.60
2018-07-10T17:50:45.155Z,8.07
2018-07-10T17:54:50.145Z,7.87
2018-07-10T17:58:54.953Z,6.83
2018-07-10T18:02:59.986Z,9.47
2018-07-10T18:07:04.983Z,7.33
2018-07-10T18:11:09.535Z,7.30
2018-07-10T18:15:14.487Z,6.03
2018-07-10T18:19:19.131Z,6.60
2018-07-10T18:23:24.881Z,7.23
2018-07-10T18:27:29.306Z,6.97
2018-07-10T18:31:34.215Z,7.10
2018-07-10T18:35:38.760Z,6.47
2018-07-10T18:39:43.322Z,4.73
2018-07-10T18:43:48.711Z,3.83
2018-07-10T18:47:53.333Z,4.17
2018-07-10T18:51:57.917Z,3.23
2018-07-10T18:56:03.707Z,3.10
2018-07-10T19:00:08.379Z,2.60
2018-07-10T19:04:13.063Z,1.67
2018-07-10T19:08:18.899Z,1.50
2018-07-10T19:12:23.596Z,1.20
2018-07-10T19:16:28.248Z,1.00
2018-07-10T19:20:34.453Z,1.47
2018-07-10T19:24:39.615Z,1.17
2018-07-10T19:28:47.150Z,0.80
2018-07-10T19:32:52.137Z,0.70
2018-07-10T19:36:56.805Z,1.40
2018-07-10T19:41:01.416Z,1.07
2018-07-10T19:45:06.415Z,0.80
2018-07-10T19:49:11.107Z,0.83
2018-07-10T19:53:15.773Z,1.03
2018-07-10T19:57:48.660Z,1.20
2018-07-10T20:02:02.845Z,0.80
2018-07-10T20:06:12.091Z,0.70
2018-07-10T20:10:29.058Z,0.97
2018-07-10T20:14:41.554Z,0.77
2018-07-10T20:19:23.129Z,0.70
2018-07-10T20:24:03.032Z,0.80
2018-07-10T20:28:30.900Z,0.90
2018-07-10T20:33:45.893Z,1.03
2018-07-10T20:37:51.004Z,1.30
2018-07-10T20:41:55.543Z,1.20
2018-07-10T20:46:00.308Z,1.13
2018-07-10T20:50:06.468Z,0.93
2018-07-10T20:54:19.387Z,1.23
2018-07-10T20:58:25.884Z,1.40
2018-07-10T21:04:49.368Z,1.60
2018-07-10T21:09:05.835Z,1.77
2018-07-10T21:13:14.400Z,1.80
2018-07-10T21:17:19.398Z,1.43
2018-07-10T21:24:48.022Z,1.80
2018-07-10T21:28:57.410Z,1.93
2018-07-10T21:33:12.849Z,1.77
2018-07-10T21:47:35.245Z,2.27
2018-07-10T21:51:40.286Z,1.50
2018-07-10T21:55:44.848Z,2.37
2018-07-10T22:00:07.040Z,2.40
2018-07-10T22:04:15.494Z,2.20
2018-07-10T22:08:20.298Z,2.43
2018-07-10T22:12:24.963Z,1.80
2018-07-10T22:16:29.635Z,2.07
2018-07-10T22:20:34.197Z,1.97
2018-07-10T22:24:39.280Z,1.90
2018-07-10T22:28:43.960Z,2.40
2018-07-10T22:32:53.439Z,3.07
2018-07-10T22:36:58.290Z,2.60
2018-07-10T22:41:02.955Z,3.00
2018-07-10T22:45:07.455Z,3.13
2018-07-10T22:49:14.255Z,2.70
2018-07-10T22:53:18.918Z,2.93
2018-07-10T22:57:23.443Z,3.07
2018-07-10T23:01:28.030Z,3.53
2018-07-10T23:05:32.837Z,3.77
2018-07-10T23:09:37.407Z,3.57
2018-07-10T23:13:46.888Z,3.50
2018-07-10T23:17:51.403Z,3.93
2018-07-10T23:21:55.902Z,3.53
2018-07-10T23:26:00.600Z,3.07
2018-07-10T23:30:05.051Z,3.40
2018-07-10T23:34:13.162Z,4.10
2018-07-10T23:39:26.323Z,4.97
2018-07-10T23:43:39.483Z,3.43
2018-07-10T23:47:45.789Z,3.47
2018-07-10T23:52:00.885Z,4.47
2018-07-10T23:56:05.399Z,3.50
